Hopton on Sea, United Kingdom
Current Conditions -  °F | °C
As of 6:50 AM on Monday 24 Nov 2014 (Local Time) from EGSD Reporting Station
Clear Clear  
Wind Chill: 29°   Ceiling: Unl
Heat Index: 34°   Visibility: 6mi
Dew Point: 34°   Wind: 6mph
Humidity: 100%   Direction: 320°NW
Pressure: 30.24"   Gusts: NA
Location:  52.53°N, 1.73°E
Report Text: EGSD 240650Z 32005KT CAVOK 01/01 Q1024
Loading
Personal Weather Stations






























Interactive Weather Map New forecast layout! Learn more

10-Day Weather Forecast

Advertisements
Track Severe Weather on mobile